createdAt,value
2022-10-13T00:02:49.234Z,10.50
2022-10-13T00:07:50.942Z,10.70
2022-10-13T00:12:52.876Z,10.60
2022-10-13T00:17:55.282Z,11.90
2022-10-13T00:22:57.018Z,10.70
2022-10-13T00:27:58.742Z,10.60
2022-10-13T00:33:00.539Z,10.70
2022-10-13T00:38:02.352Z,10.60
2022-10-13T00:43:04.158Z,10.60
2022-10-13T00:48:06.205Z,10.50
2022-10-13T00:53:09.196Z,10.60
2022-10-13T00:58:16.189Z,10.60
2022-10-13T01:03:20.145Z,10.40
2022-10-13T01:08:23.183Z,10.40
2022-10-13T01:13:54.627Z,10.50
2022-10-13T01:19:37.138Z,10.40
2022-10-13T01:25:04.920Z,10.40
2022-10-13T01:30:11.343Z,10.50
2022-10-13T01:35:33.617Z,10.60
2022-10-13T01:40:39.386Z,10.20
2022-10-13T01:45:54.450Z,10.30
2022-10-13T01:50:59.844Z,10.50
2022-10-13T01:56:02.151Z,10.50
2022-10-13T02:01:22.456Z,10.60
2022-10-13T02:06:44.182Z,10.40
2022-10-13T02:11:55.574Z,10.40
2022-10-13T02:17:00.008Z,11.10
2022-10-13T02:22:03.119Z,10.40
2022-10-13T02:27:06.669Z,10.30
2022-10-13T02:32:08.461Z,10.20
2022-10-13T02:37:11.275Z,10.40
2022-10-13T02:42:13.052Z,10.30
2022-10-13T02:47:14.835Z,10.70
2022-10-13T02:52:17.090Z,10.40
2022-10-13T02:57:19.179Z,10.50
2022-10-13T03:02:21.453Z,10.90
2022-10-13T03:07:23.322Z,10.60
2022-10-13T03:12:25.174Z,10.70
2022-10-13T03:17:27.262Z,10.60
2022-10-13T03:22:32.149Z,10.80
2022-10-13T03:27:34.341Z,10.70
2022-10-13T03:32:36.096Z,10.80
2022-10-13T03:37:37.883Z,11.00
2022-10-13T03:42:39.721Z,10.90
2022-10-13T03:47:41.514Z,11.00
2022-10-13T03:52:43.313Z,11.00
2022-10-13T03:57:45.059Z,11.00
2022-10-13T04:02:49.638Z,11.00
2022-10-13T04:07:51.749Z,11.00
2022-10-13T04:12:53.509Z,11.00
2022-10-13T04:17:55.265Z,11.60
2022-10-13T04:22:57.050Z,11.10
2022-10-13T04:27:59.342Z,11.30
2022-10-13T04:33:01.135Z,12.50
2022-10-13T04:38:02.957Z,11.30
2022-10-13T04:43:04.707Z,11.30
2022-10-13T04:48:06.546Z,11.30
2022-10-13T04:53:08.234Z,11.30
2022-10-13T04:58:10.024Z,11.40
2022-10-13T05:03:11.726Z,11.40
2022-10-13T05:08:13.626Z,11.80
2022-10-13T05:13:15.341Z,11.30
2022-10-13T05:18:17.209Z,11.40
2022-10-13T05:23:20.317Z,11.40
2022-10-13T05:28:22.130Z,11.50
2022-10-13T05:33:23.972Z,11.60
2022-10-13T05:38:26.251Z,11.60
2022-10-13T05:43:28.008Z,11.50
2022-10-13T05:48:30.371Z,11.50
2022-10-13T05:53:35.623Z,11.40
2022-10-13T05:58:43.987Z,11.50
2022-10-13T06:03:48.740Z,11.40
2022-10-13T06:08:51.132Z,11.60
2022-10-13T06:13:52.920Z,11.60
2022-10-13T06:18:54.672Z,11.60
2022-10-13T06:23:56.839Z,11.70
2022-10-13T06:28:59.953Z,11.70
2022-10-13T06:34:01.849Z,11.90
2022-10-13T06:39:03.741Z,11.90
2022-10-13T06:44:05.660Z,12.00
2022-10-13T06:49:10.245Z,12.10
2022-10-13T06:54:12.022Z,12.10
2022-10-13T06:59:13.969Z,12.20
2022-10-13T07:04:16.037Z,12.30
2022-10-13T07:09:18.068Z,12.40
2022-10-13T07:14:19.938Z,12.50
2022-10-13T07:19:21.784Z,12.50
2022-10-13T07:24:23.719Z,12.70
2022-10-13T07:29:25.585Z,12.70
2022-10-13T07:34:27.391Z,12.90
2022-10-13T07:39:29.313Z,13.10
2022-10-13T07:44:31.100Z,13.20
2022-10-13T07:49:32.939Z,13.30
2022-10-13T07:54:34.753Z,13.40
2022-10-13T07:59:36.646Z,13.50
2022-10-13T08:04:39.075Z,13.60
2022-10-13T08:09:40.919Z,13.80
2022-10-13T08:14:42.833Z,14.00
2022-10-13T08:19:44.760Z,14.50
2022-10-13T08:24:46.476Z,14.90
2022-10-13T08:29:48.354Z,14.90
2022-10-13T08:34:50.638Z,14.90
2022-10-13T08:39:56.086Z,14.90
2022-10-13T08:45:39.853Z,15.00
2022-10-13T08:50:25.924Z,15.00
2022-10-13T08:55:41.171Z,15.30
2022-10-13T09:00:43.109Z,15.30
2022-10-13T09:06:15.409Z,15.60
2022-10-13T09:11:17.180Z,16.40
2022-10-13T09:16:27.461Z,16.70
2022-10-13T09:21:30.263Z,16.80
2022-10-13T09:26:37.729Z,17.40
2022-10-13T09:31:39.569Z,17.50
2022-10-13T09:36:59.011Z,17.90
2022-10-13T09:42:31.737Z,18.10
2022-10-13T09:47:33.472Z,18.40
2022-10-13T09:52:35.258Z,18.30
2022-10-13T09:57:45.095Z,18.00
2022-10-13T10:03:03.171Z,17.90
2022-10-13T10:08:33.835Z,17.90
2022-10-13T10:13:46.643Z,17.80
2022-10-13T10:19:20.789Z,17.60
2022-10-13T10:24:41.693Z,17.40
2022-10-13T10:29:58.124Z,17.60
2022-10-13T10:35:14.631Z,17.80
2022-10-13T10:40:28.091Z,17.50
2022-10-13T10:45:39.361Z,17.50
2022-10-13T10:50:41.249Z,17.40
2022-10-13T10:56:01.111Z,17.50
2022-10-13T11:01:08.223Z,17.20
2022-10-13T11:06:16.017Z,16.90
2022-10-13T11:11:26.783Z,16.80
2022-10-13T11:16:58.274Z,16.50
2022-10-13T11:22:00.046Z,16.50
2022-10-13T11:27:07.837Z,16.80
2022-10-13T11:32:32.793Z,16.90
2022-10-13T11:38:08.021Z,16.80
2022-10-13T11:43:28.737Z,16.80
2022-10-13T11:49:01.511Z,16.40
2022-10-13T11:54:25.210Z,16.60
2022-10-13T11:59:37.528Z,16.90
2022-10-13T12:04:46.357Z,17.10
2022-10-13T12:09:51.626Z,16.80
2022-10-13T12:14:58.714Z,17.10
2022-10-13T12:20:21.891Z,17.00
2022-10-13T12:25:29.754Z,16.90
2022-10-13T12:30:37.134Z,17.00
2022-10-13T12:35:38.906Z,17.60
2022-10-13T12:40:40.786Z,17.60
2022-10-13T12:45:43.561Z,17.50
2022-10-13T12:50:45.354Z,17.80
2022-10-13T12:55:59.379Z,19.70
2022-10-13T13:01:06.868Z,19.20
2022-10-13T13:06:15.958Z,19.00
2022-10-13T13:11:34.455Z,19.50
2022-10-13T13:16:36.224Z,20.70
2022-10-13T13:21:38.010Z,22.20
2022-10-13T13:26:39.838Z,22.20
2022-10-13T13:31:41.614Z,20.30
2022-10-13T13:36:43.542Z,21.30
2022-10-13T13:41:45.516Z,20.30
2022-10-13T13:46:47.241Z,22.00
2022-10-13T13:51:48.956Z,22.00
2022-10-13T13:56:52.569Z,22.90
2022-10-13T14:01:57.178Z,22.00
2022-10-13T14:06:59.017Z,20.80
2022-10-13T14:12:00.796Z,20.10
2022-10-13T14:17:03.813Z,19.70
2022-10-13T14:22:09.469Z,19.60
2022-10-13T14:27:11.796Z,18.70
2022-10-13T14:32:13.577Z,18.70
2022-10-13T14:37:15.346Z,18.30
2022-10-13T14:42:17.035Z,18.30
2022-10-13T14:47:19.233Z,17.80
2022-10-13T14:52:21.132Z,17.80
2022-10-13T14:57:23.276Z,17.50
2022-10-13T15:02:25.212Z,17.50
2022-10-13T15:07:27.014Z,17.30
2022-10-13T15:12:28.819Z,17.00
2022-10-13T15:17:33.210Z,16.90
2022-10-13T15:22:35.111Z,16.90
2022-10-13T15:27:41.819Z,16.70
2022-10-13T15:32:44.010Z,16.70
2022-10-13T15:37:45.792Z,16.70
2022-10-13T15:42:47.724Z,16.70
2022-10-13T15:47:51.937Z,16.60
2022-10-13T15:52:53.713Z,16.40
2022-10-13T15:57:55.754Z,16.30
2022-10-13T16:02:57.513Z,16.20
2022-10-13T16:07:59.301Z,16.20
2022-10-13T16:13:01.145Z,16.20
2022-10-13T16:18:02.882Z,16.00
2022-10-13T16:23:05.421Z,16.00
2022-10-13T16:28:07.235Z,15.90
2022-10-13T16:33:09.423Z,15.70
2022-10-13T16:38:11.489Z,15.60
2022-10-13T16:43:13.230Z,15.50
2022-10-13T16:48:15.030Z,15.40
2022-10-13T16:53:16.825Z,15.30
2022-10-13T16:58:18.547Z,15.40
2022-10-13T17:03:20.402Z,15.30
2022-10-13T17:08:22.123Z,15.30
2022-10-13T17:13:23.881Z,15.30
2022-10-13T17:18:26.747Z,15.20
2022-10-13T17:23:29.859Z,15.20
2022-10-13T17:28:32.575Z,15.20
2022-10-13T17:33:36.511Z,15.20
2022-10-13T17:38:38.367Z,15.10
2022-10-13T17:43:41.237Z,15.00
2022-10-13T17:48:43.678Z,15.00
2022-10-13T17:53:45.446Z,14.90
2022-10-13T17:58:47.957Z,14.90
2022-10-13T18:03:52.691Z,14.90
2022-10-13T18:08:54.900Z,14.80
2022-10-13T18:13:56.653Z,14.80
2022-10-13T18:18:58.346Z,14.80
2022-10-13T18:24:01.718Z,14.70
2022-10-13T18:29:05.974Z,14.70
2022-10-13T18:34:10.877Z,14.70
2022-10-13T18:39:18.585Z,14.60
2022-10-13T18:44:21.486Z,14.70
2022-10-13T18:49:30.805Z,14.70
2022-10-13T18:54:33.032Z,14.70
2022-10-13T18:59:38.724Z,14.60
2022-10-13T19:04:40.660Z,14.60
2022-10-13T19:09:42.398Z,14.50
2022-10-13T19:14:44.619Z,14.50
2022-10-13T19:19:46.406Z,14.70
2022-10-13T19:24:48.191Z,14.60
2022-10-13T19:29:52.453Z,14.60
2022-10-13T19:39:56.323Z,14.50
2022-10-13T19:44:59.590Z,14.50
2022-10-13T19:50:01.433Z,14.50
2022-10-13T19:55:03.399Z,14.50
2022-10-13T20:00:05.670Z,14.50
2022-10-13T20:05:08.077Z,14.50
2022-10-13T20:10:09.840Z,14.40
2022-10-13T20:15:11.645Z,14.40
2022-10-13T20:20:13.402Z,14.50
2022-10-13T20:25:19.582Z,14.40
2022-10-13T20:30:21.446Z,14.50
2022-10-13T20:35:23.357Z,14.50
2022-10-13T20:40:25.102Z,14.40
2022-10-13T20:45:26.861Z,14.40
2022-10-13T20:50:28.613Z,14.50
2022-10-13T20:55:31.282Z,14.40
2022-10-13T21:00:33.120Z,14.40
2022-10-13T21:05:34.884Z,14.40
2022-10-13T21:10:37.246Z,14.40
2022-10-13T21:15:40.715Z,14.40
2022-10-13T21:20:42.547Z,14.30
2022-10-13T21:25:44.286Z,14.30
2022-10-13T21:30:46.072Z,14.20
2022-10-13T21:35:47.798Z,14.20
2022-10-13T21:40:53.837Z,14.10
2022-10-13T21:45:55.834Z,14.00
2022-10-13T21:50:57.587Z,14.00
2022-10-13T21:56:08.257Z,14.00
2022-10-13T22:01:10.469Z,14.00
2022-10-13T22:06:18.768Z,13.90
2022-10-13T22:11:23.319Z,13.90
2022-10-13T22:16:31.897Z,14.10
2022-10-13T22:21:37.338Z,13.90
2022-10-13T22:26:41.120Z,13.90
2022-10-13T22:31:43.209Z,13.90
2022-10-13T22:36:45.540Z,13.90
2022-10-13T22:41:47.463Z,14.00
2022-10-13T22:46:49.228Z,13.80
2022-10-13T22:51:50.950Z,13.70
2022-10-13T22:56:52.689Z,13.80
2022-10-13T23:01:54.424Z,13.80
2022-10-13T23:06:56.138Z,13.80
2022-10-13T23:11:59.963Z,13.90
2022-10-13T23:17:01.931Z,13.80
2022-10-13T23:22:03.695Z,13.80
2022-10-13T23:27:05.441Z,13.80
2022-10-13T23:32:09.769Z,13.80
2022-10-13T23:37:11.781Z,13.70
2022-10-13T23:42:13.604Z,13.70
2022-10-13T23:47:15.280Z,17.50
2022-10-13T23:52:19.385Z,13.80
2022-10-13T23:57:21.276Z,13.80
